| time (UTC) | temp F | wind direction | speed knots | gust knots | rain 1hr in | rain 24hr in | rain mn in | humidity % | barometer mb |
| 20260508014140 | 0 | 184 | 0.0 | 0.0 | 0.00 | 0.48 | 0.48 | 93 | 1000.9 |
| 20260508013640 | 0 | 184 | 0.0 | 0.0 | 0.00 | 0.48 | 0.48 | 94 | 1000.8 |
| 20260508013139 | 0 | 184 | 0.0 | 0.0 | 0.00 | 0.48 | 0.48 | 93 | 1000.6 |
| 20260508012639 | 0 | 122 | 0.0 | 0.0 | 0.00 | 0.48 | 0.48 | 93 | 1000.4 |
| 20260508012138 | 0 | 122 | 0.0 | 0.0 | 0.00 | 0.48 | 0.48 | 93 | 1000.3 |
| 20260508011638 | 0 | 122 | 0.0 | 0.0 | 0.00 | 0.48 | 0.48 | 93 | 1000.1 |
| 20260508010637 | 0 | 122 | 0.0 | 0.0 | 0.00 | 0.48 | 0.48 | 93 | 1000.5 |
| 20260508010137 | 0 | 122 | 0.0 | 0.0 | 0.00 | 0.48 | 0.48 | 93 | 1000.4 |
| 20260508005637 | 0 | 122 | 0.0 | 0.0 | 0.00 | 0.48 | 0.48 | 93 | 1000.3 |
| 20260508005136 | 0 | 122 | 0.0 | 0.0 | 0.00 | 0.48 | 0.48 | 92 | 1000.5 |
| 20260508004635 | 0 | 123 | 0.0 | 0.0 | 0.00 | 0.48 | 0.48 | 92 | 1000.3 |
| 20260508004135 | 0 | 143 | 0.0 | 0.0 | 0.00 | 0.48 | 0.48 | 93 | 1000.1 |
| 20260508003635 | 0 | 143 | 0.0 | 0.0 | 0.00 | 0.48 | 0.48 | 92 | 1000.2 |
| 20260508003134 | 0 | 144 | 0.0 | 0.0 | 0.00 | 0.48 | 0.48 | 92 | 1000.2 |
| 20260508002634 | 0 | 143 | 0.0 | 0.0 | 0.00 | 0.48 | 0.48 | 92 | 1000.1 |
| 20260508002133 | 0 | 178 | 0.0 | 0.0 | 0.00 | 0.48 | 0.48 | 92 | 999.9 |
| 20260508001633 | 0 | 147 | 0.0 | 0.0 | 0.00 | 0.48 | 0.48 | 92 | 999.7 |
| 20260508001132 | 0 | 116 | 0.0 | 0.0 | 0.00 | 0.48 | 0.48 | 91 | 999.8 |
| 20260508000632 | 0 | 129 | 0.0 | 0.0 | 0.00 | 0.48 | 0.48 | 92 | 999.9 |
| 20260508000132 | 0 | 183 | 0.0 | 0.9 | 0.00 | 0.48 | 0.48 | 91 | 1000.0 |
| 20260507235631 | 0 | 180 | 0.0 | 0.0 | 0.00 | 0.48 | 0.48 | 91 | 999.9 |
| 20260507235131 | 0 | 45 | 0.0 | 0.9 | 0.00 | 0.48 | 0.48 | 90 | 999.6 |
| 20260507234630 | 0 | 190 | 0.0 | 0.0 | 0.00 | 0.48 | 0.48 | 91 | 999.7 |
| 20260507234130 | 0 | 190 | 0.0 | 0.0 | 0.00 | 0.48 | 0.48 | 90 | 999.5 |
| 20260507233630 | 0 | 142 | 0.0 | 0.0 | 0.00 | 0.48 | 0.48 | 90 | 999.5 |
| 20260507233129 | 0 | 254 | 0.0 | 0.9 | 0.00 | 0.48 | 0.48 | 90 | 999.4 |
| 20260507232629 | 0 | 142 | 0.0 | 0.0 | 0.00 | 0.48 | 0.48 | 90 | 999.3 |
| 20260507232127 | 0 | 142 | 0.0 | 0.0 | 0.00 | 0.48 | 0.48 | 90 | 999.3 |
| 20260507231626 | 0 | 159 | 0.0 | 0.0 | 0.00 | 0.48 | 0.48 | 89 | 999.1 |
| 20260507231126 | 0 | 125 | 0.9 | 0.9 | 0.00 | 0.48 | 0.48 | 89 | 999.0 |
| 20260507230625 | 0 | 92 | 0.0 | 0.9 | 0.00 | 0.48 | 0.48 | 89 | 998.9 |
| 20260507230125 | 0 | 97 | 0.9 | 1.7 | 0.00 | 0.48 | 0.48 | 88 | 998.9 |
| 20260507225625 | 0 | 129 | 0.0 | 0.0 | 0.00 | 0.48 | 0.48 | 88 | 998.5 |
| 20260507225124 | 0 | 136 | 0.0 | 0.9 | 0.00 | 0.48 | 0.48 | 88 | 999.0 |
| 20260507224624 | 0 | 169 | 0.0 | 0.9 | 0.00 | 0.48 | 0.48 | 88 | 999.0 |
| 20260507224124 | 0 | 129 | 0.0 | 0.0 | 0.00 | 0.48 | 0.48 | 89 | 999.0 |
| 20260507223623 | 0 | 148 | 0.0 | 0.0 | 0.00 | 0.48 | 0.48 | 89 | 999.0 |
| 20260507223123 | 0 | 96 | 0.9 | 0.9 | 0.00 | 0.48 | 0.48 | 88 | 998.9 |
| 20260507222623 | 0 | 124 | 0.0 | 0.9 | 0.00 | 0.48 | 0.48 | 88 | 998.5 |
| 20260507222122 | 0 | 113 | 1.7 | 3.5 | 0.00 | 0.48 | 0.48 | 88 | 998.6 |
| 20260507221622 | 0 | 207 | 0.9 | 1.7 | 0.00 | 0.48 | 0.48 | 91 | 998.4 |
| 20260507221122 | 0 | 179 | 0.0 | 0.0 | 0.00 | 0.48 | 0.48 | 92 | 998.6 |
| 20260507220621 | 0 | 121 | 0.0 | 0.0 | 0.00 | 0.48 | 0.48 | 91 | 999.1 |
| 20260507220121 | 0 | 82 | 1.7 | 1.7 | 0.00 | 0.48 | 0.48 | 91 | 998.9 |
| 20260507215621 | 0 | 80 | 0.0 | 0.9 | 0.00 | 0.48 | 0.48 | 91 | 999.0 |
| 20260507215120 | 0 | 117 | 0.0 | 0.0 | 0.00 | 0.48 | 0.48 | 91 | 999.2 |
| 20260507214620 | 0 | 116 | 0.0 | 0.0 | 0.00 | 0.48 | 0.48 | 91 | 999.1 |
| 20260507214120 | 0 | 30 | 1.7 | 2.6 | 0.00 | 0.48 | 0.48 | 90 | 999.1 |
| 20260507213619 | 0 | 70 | 0.9 | 2.6 | 0.00 | 0.48 | 0.48 | 90 | 998.7 |
| 20260507213119 | 0 | 147 | 1.7 | 2.6 | 0.00 | 0.48 | 0.48 | 89 | 998.5 |
| 20260507212618 | 0 | 143 | 0.0 | 0.0 | 0.00 | 0.48 | 0.48 | 91 | 998.6 |
| 20260507212118 | 0 | 144 | 0.0 | 0.0 | 0.00 | 0.48 | 0.48 | 91 | 998.7 |
| 20260507211618 | 0 | 129 | 0.0 | 0.0 | 0.00 | 0.48 | 0.48 | 90 | 998.8 |
| 20260507211117 | 0 | 156 | 0.0 | 0.0 | 0.00 | 0.48 | 0.48 | 90 | 998.7 |
| 20260507210617 | 0 | 172 | 0.0 | 0.0 | 0.00 | 0.48 | 0.48 | 91 | 998.7 |
| 20260507210117 | 0 | 86 | 0.9 | 1.7 | 0.00 | 0.48 | 0.48 | 91 | 998.6 |
| 20260507205616 | 0 | 320 | 0.0 | 0.0 | 0.00 | 0.48 | 0.48 | 92 | 998.5 |
| 20260507205116 | 0 | 129 | 0.0 | 0.9 | 0.00 | 0.48 | 0.48 | 92 | 998.8 |
| 20260507204616 | 0 | 194 | 0.0 | 0.0 | 0.00 | 0.48 | 0.48 | 92 | 998.3 |
| 20260507204115 | 0 | 159 | 0.0 | 0.0 | 0.00 | 0.48 | 0.48 | 92 | 998.4 |
| 20260507203615 | 0 | 129 | 0.0 | 0.0 | 0.00 | 0.48 | 0.48 | 92 | 998.4 |
| 20260507203114 | 0 | 120 | 0.9 | 0.9 | 0.00 | 0.48 | 0.48 | 92 | 998.3 |
| 20260507202614 | 0 | 163 | 0.0 | 0.0 | 0.00 | 0.48 | 0.48 | 93 | 998.4 |
| 20260507202114 | 0 | 155 | 0.0 | 0.0 | 0.00 | 0.48 | 0.48 | 93 | 998.2 |
| 20260507201613 | 0 | 137 | 0.0 | 0.0 | 0.00 | 0.48 | 0.48 | 93 | 998.6 |
| 20260507201113 | 0 | 156 | 0.0 | 0.0 | 0.00 | 0.48 | 0.48 | 94 | 998.4 |
| 20260507200613 | 0 | 181 | 0.0 | 0.0 | 0.00 | 0.48 | 0.48 | 93 | 998.3 |
| 20260507200112 | 0 | 177 | 0.9 | 1.7 | 0.00 | 0.48 | 0.48 | 93 | 998.0 |
| 20260507195612 | 0 | 110 | 0.0 | 0.0 | 0.00 | 0.48 | 0.48 | 93 | 998.3 |
| 20260507195112 | 0 | 105 | 0.9 | 0.9 | 0.00 | 0.48 | 0.48 | 94 | 998.1 |
| 20260507194612 | 0 | 133 | 0.0 | 0.9 | 0.00 | 0.48 | 0.48 | 93 | 998.3 |
| 20260507194111 | 0 | 132 | 0.0 | 0.0 | 0.00 | 0.48 | 0.48 | 93 | 998.4 |
| 20260507193611 | 0 | 178 | 0.9 | 0.9 | 0.00 | 0.48 | 0.48 | 94 | 998.1 |
| 20260507193111 | 0 | 52 | 1.7 | 1.7 | 0.00 | 0.48 | 0.48 | 94 | 998.0 |
| 20260507192610 | 0 | 98 | 0.0 | 0.9 | 0.00 | 0.48 | 0.48 | 95 | 998.1 |
| 20260507192110 | 0 | 129 | 0.9 | 1.7 | 0.00 | 0.48 | 0.48 | 96 | 998.4 |
| 20260507191610 | 0 | 181 | 0.0 | 0.0 | 0.00 | 0.48 | 0.48 | 96 | 998.1 |
| 20260507191109 | 0 | 121 | 0.0 | 0.0 | 0.00 | 0.48 | 0.48 | 96 | 998.5 |
| 20260507190609 | 0 | 88 | 0.9 | 0.9 | 0.00 | 0.48 | 0.48 | 96 | 998.7 |
| 20260507185608 | 0 | 129 | 0.0 | 0.9 | 0.00 | 0.48 | 0.48 | 96 | 998.5 |
| 20260507185108 | 0 | 159 | 0.9 | 0.9 | 0.00 | 0.48 | 0.48 | 96 | 998.2 |
| 20260507184607 | 0 | 135 | 0.0 | 0.0 | 0.00 | 0.48 | 0.48 | 97 | 997.7 |
| 20260507184107 | 0 | 128 | 0.0 | 0.0 | 0.00 | 0.48 | 0.48 | 97 | 997.8 |
| 20260507183607 | 0 | 129 | 0.0 | 0.0 | 0.00 | 0.48 | 0.48 | 97 | 998.1 |
| 20260507183106 | 0 | 167 | 0.0 | 0.9 | 0.00 | 0.48 | 0.48 | 97 | 998.3 |
| 20260507182606 | 0 | 135 | 0.0 | 0.9 | 0.00 | 0.48 | 0.48 | 97 | 998.4 |
| 20260507182106 | 0 | 290 | 0.0 | 0.0 | 0.00 | 0.48 | 0.48 | 97 | 998.6 |
| 20260507181605 | 0 | 336 | 0.9 | 1.7 | 0.00 | 0.48 | 0.48 | 97 | 998.5 |
| 20260507181105 | 0 | 338 | 1.7 | 3.5 | 0.00 | 0.48 | 0.48 | 97 | 997.7 |
| 20260507180604 | 0 | 140 | 0.0 | 0.0 | 0.05 | 0.48 | 0.48 | 97 | 998.2 |
| 20260507180104 | 0 | 189 | 0.0 | 0.0 | 0.05 | 0.48 | 0.48 | 98 | 998.0 |
| 20260507175604 | 0 | 143 | 0.0 | 0.0 | 0.00 | 0.47 | 0.47 | 98 | 998.0 |
| 20260507175103 | 0 | 79 | 0.0 | 0.9 | 0.00 | 0.47 | 0.47 | 97 | 997.8 |
| 20260507174603 | 0 | 80 | 1.7 | 1.7 | 0.00 | 0.47 | 0.47 | 98 | 997.5 |
| 20260507174102 | 0 | 132 | 0.0 | 0.0 | 0.00 | 0.47 | 0.47 | 97 | 997.8 |
| 20260507173602 | 0 | 141 | 0.0 | 0.0 | 0.07 | 0.47 | 0.47 | 97 | 998.5 |
| 20260507173102 | 0 | 143 | 0.0 | 0.9 | 0.07 | 0.47 | 0.47 | 96 | 998.6 |
| 20260507172602 | 0 | 119 | 0.0 | 0.0 | 0.00 | 0.46 | 0.46 | 96 | 998.2 |
| 20260507172101 | 0 | 124 | 0.0 | 0.0 | 0.00 | 0.46 | 0.46 | 96 | 997.9 |
| 20260507171601 | 0 | 123 | 1.7 | 2.6 | 0.00 | 0.46 | 0.46 | 96 | 997.7 |
| 20260507171101 | 0 | 152 | 0.9 | 0.9 | 0.00 | 0.46 | 0.46 | 96 | 997.7 |
| 20260507170600 | 0 | 8 | 0.9 | 1.7 | 0.05 | 0.46 | 0.46 | 95 | 997.3 |
| 20260507170100 | 0 | 323 | 5.2 | 7.8 | 0.05 | 0.46 | 0.46 | 95 | 997.2 |
| 20260507165600 | 0 | 105 | 0.9 | 0.9 | 0.05 | 0.46 | 0.46 | 98 | 996.7 |
| 20260507165059 | 0 | 129 | 0.0 | 0.0 | 0.07 | 0.45 | 0.45 | 98 | 996.6 |
| 20260507164559 | 0 | 115 | 0.0 | 0.0 | 0.07 | 0.45 | 0.45 | 99 | 996.8 |
| 20260507164059 | 0 | 116 | 0.0 | 0.0 | 0.00 | 0.44 | 0.44 | 98 | 997.0 |
| 20260507163558 | 0 | 119 | 0.0 | 0.0 | 0.00 | 0.44 | 0.44 | 99 | 996.9 |
| 20260507163058 | 0 | 119 | 0.0 | 0.0 | 0.00 | 0.44 | 0.44 | 99 | 997.0 |
| 20260507162557 | 0 | 121 | 0.0 | 0.0 | 0.05 | 0.44 | 0.44 | 99 | 997.3 |
| 20260507162057 | 0 | 119 | 0.0 | 0.0 | 0.12 | 0.44 | 0.44 | 99 | 997.5 |
| 20260507161557 | 0 | 145 | 0.0 | 0.0 | 0.12 | 0.43 | 0.43 | 99 | 998.1 |
| 20260507161056 | 0 | 68 | 0.9 | 1.7 | 0.12 | 0.42 | 0.42 | 99 | 998.2 |
| 20260507160556 | 0 | 127 | 0.0 | 0.0 | 0.07 | 0.41 | 0.41 | 99 | 998.4 |
| 20260507160055 | 0 | 137 | 0.0 | 0.0 | 0.07 | 0.40 | 0.40 | 99 | 998.1 |
| 20260507155555 | 0 | 136 | 0.0 | 0.0 | 0.07 | 0.40 | 0.40 | 99 | 998.4 |
| 20260507155055 | 0 | 130 | 0.0 | 0.0 | 0.00 | 0.39 | 0.39 | 99 | 998.4 |
| 20260507154554 | 0 | 156 | 0.0 | 0.0 | 0.00 | 0.39 | 0.39 | 99 | 998.2 |
| 20260507154054 | 0 | 156 | 0.0 | 0.0 | 0.00 | 0.39 | 0.39 | 99 | 998.0 |
| 20260507153554 | 0 | 156 | 0.0 | 0.0 | 0.00 | 0.39 | 0.39 | 99 | 998.0 |
| 20260507153053 | 0 | 156 | 0.0 | 0.0 | 0.00 | 0.39 | 0.39 | 99 | 997.8 |
| 20260507152553 | 0 | 156 | 0.0 | 0.0 | 0.05 | 0.39 | 0.39 | 99 | 997.6 |
| 20260507152053 | 0 | 156 | 0.0 | 0.0 | 0.05 | 0.39 | 0.39 | 99 | 997.6 |
| 20260507151552 | 0 | 153 | 0.0 | 0.0 | 0.07 | 0.38 | 0.38 | 99 | 997.8 |
| 20260507151052 | 0 | 153 | 0.0 | 0.0 | 0.07 | 0.38 | 0.38 | 99 | 997.8 |
| 20260507150551 | 0 | 153 | 0.0 | 0.0 | 0.12 | 0.38 | 0.38 | 99 | 998.0 |
| 20260507150051 | 0 | 151 | 0.0 | 0.0 | 0.12 | 0.37 | 0.37 | 99 | 998.2 |
| 20260507145551 | 0 | 152 | 0.0 | 0.0 | 0.07 | 0.36 | 0.36 | 99 | 998.1 |
| 20260507145050 | 0 | 155 | 0.0 | 0.0 | 0.07 | 0.36 | 0.36 | 99 | 998.1 |
| 20260507144550 | 0 | 156 | 0.0 | 0.0 | 0.00 | 0.35 | 0.35 | 99 | 997.7 |
| 20260507144049 | 0 | 156 | 0.0 | 0.0 | 0.05 | 0.35 | 0.35 | 99 | 997.8 |
| 20260507143533 | 0 | 156 | 0.0 | 0.0 | 0.12 | 0.35 | 0.35 | 99 | 997.9 |
| 20260507143033 | 0 | 154 | 0.0 | 0.0 | 0.12 | 0.34 | 0.34 | 99 | 998.1 |
| 20260507142532 | 0 | 156 | 0.0 | 0.0 | 0.19 | 0.34 | 0.34 | 99 | 998.1 |
| 20260507142032 | 0 | 151 | 0.0 | 0.0 | 0.12 | 0.32 | 0.32 | 99 | 997.9 |
| 20260507141532 | 0 | 150 | 0.0 | 0.0 | 0.05 | 0.31 | 0.31 | 99 | 998.0 |
| 20260507141031 | 0 | 150 | 0.0 | 0.0 | 0.00 | 0.30 | 0.30 | 99 | 997.9 |
| 20260507140531 | 0 | 150 | 0.0 | 0.0 | 0.00 | 0.30 | 0.30 | 99 | 998.0 |
| 20260507140030 | 0 | 155 | 0.0 | 0.0 | 0.07 | 0.30 | 0.30 | 99 | 998.0 |
| 20260507135529 | 0 | 155 | 0.0 | 0.0 | 0.07 | 0.30 | 0.30 | 99 | 997.9 |
| 20260507135028 | 0 | 155 | 0.0 | 0.0 | 0.05 | 0.29 | 0.29 | 99 | 998.0 |
| 20260507134528 | 0 | 155 | 0.0 | 0.0 | 0.12 | 0.29 | 0.29 | 99 | 998.3 |
| 20260507134028 | 0 | 153 | 0.0 | 0.0 | 0.07 | 0.28 | 0.28 | 99 | 998.7 |
| 20260507133527 | 0 | 153 | 0.0 | 0.0 | 0.07 | 0.27 | 0.27 | 99 | 998.9 |
| 20260507133027 | 0 | 152 | 0.0 | 0.0 | 0.07 | 0.27 | 0.27 | 99 | 998.6 |
| 20260507132526 | 0 | 152 | 0.0 | 0.0 | 0.00 | 0.26 | 0.26 | 99 | 998.9 |
| 20260507132026 | 0 | 152 | 0.0 | 0.0 | 0.00 | 0.26 | 0.26 | 99 | 998.6 |
| 20260507131526 | 0 | 152 | 0.0 | 0.0 | 0.00 | 0.26 | 0.26 | 99 | 998.7 |
| 20260507131025 | 0 | 152 | 0.0 | 0.0 | 0.00 | 0.26 | 0.26 | 99 | 998.7 |
| 20260507130525 | 0 | 152 | 0.0 | 0.0 | 0.05 | 0.26 | 0.26 | 99 | 998.7 |
| 20260507130025 | 0 | 152 | 0.0 | 0.0 | 0.05 | 0.26 | 0.26 | 99 | 998.7 |
| 20260507125524 | 0 | 153 | 0.0 | 0.0 | 0.05 | 0.26 | 0.26 | 99 | 998.6 |
| 20260507125024 | 0 | 153 | 0.0 | 0.0 | 0.00 | 0.25 | 0.25 | 99 | 998.5 |
| 20260507124524 | 0 | 153 | 0.0 | 0.0 | 0.00 | 0.25 | 0.25 | 99 | 998.6 |
| 20260507124023 | 0 | 153 | 0.0 | 0.0 | 0.00 | 0.25 | 0.25 | 99 | 998.9 |
| 20260507123523 | 0 | 153 | 0.0 | 0.0 | 0.00 | 0.25 | 0.25 | 99 | 998.8 |
| 20260507123023 | 0 | 153 | 0.0 | 0.0 | 0.00 | 0.25 | 0.25 | 99 | 998.7 |
| 20260507122522 | 0 | 153 | 0.0 | 0.0 | 0.00 | 0.25 | 0.25 | 99 | 998.4 |
| 20260507122022 | 0 | 153 | 0.0 | 0.0 | 0.00 | 0.25 | 0.25 | 99 | 998.5 |
| 20260507121522 | 0 | 153 | 0.0 | 0.0 | 0.00 | 0.25 | 0.25 | 99 | 998.4 |
| 20260507121022 | 0 | 153 | 0.0 | 0.0 | 0.00 | 0.25 | 0.25 | 99 | 998.4 |
| 20260507120521 | 0 | 153 | 0.0 | 0.0 | 0.00 | 0.25 | 0.25 | 99 | 998.4 |
| 20260507120021 | 0 | 153 | 0.0 | 0.0 | 0.00 | 0.25 | 0.25 | 99 | 998.5 |
| 20260507115520 | 0 | 153 | 0.0 | 0.0 | 0.00 | 0.25 | 0.25 | 99 | 998.8 |
| 20260507115020 | 0 | 153 | 0.0 | 0.0 | 0.00 | 0.25 | 0.25 | 99 | 998.8 |
| 20260507114520 | 0 | 153 | 0.0 | 0.0 | 0.00 | 0.25 | 0.25 | 99 | 998.7 |
| 20260507114020 | 0 | 153 | 0.0 | 0.0 | 0.00 | 0.25 | 0.25 | 99 | 998.5 |
| 20260507113519 | 0 | 153 | 0.0 | 0.0 | 0.00 | 0.25 | 0.25 | 99 | 998.9 |
| 20260507113019 | 0 | 153 | 0.0 | 0.0 | 0.00 | 0.25 | 0.25 | 99 | 999.0 |
| 20260507112514 | 0 | 153 | 0.0 | 0.0 | 0.00 | 0.25 | 0.25 | 99 | 998.9 |
| 20260507112013 | 0 | 153 | 0.0 | 0.0 | 0.00 | 0.25 | 0.25 | 99 | 998.8 |
| 20260507111513 | 0 | 153 | 0.0 | 0.0 | 0.00 | 0.25 | 0.25 | 99 | 998.9 |
| 20260507111013 | 0 | 153 | 0.0 | 0.0 | 0.00 | 0.25 | 0.25 | 99 | 998.9 |
| 20260507110512 | 0 | 153 | 0.0 | 0.0 | 0.00 | 0.25 | 0.25 | 99 | 999.0 |
| 20260507110012 | 0 | 153 | 0.0 | 0.0 | 0.00 | 0.25 | 0.25 | 99 | 998.9 |
| 20260507105512 | 0 | 153 | 0.0 | 0.0 | 0.00 | 0.25 | 0.25 | 99 | 999.0 |
| 20260507105011 | 0 | 153 | 0.0 | 0.0 | 0.07 | 0.25 | 0.25 | 99 | 998.8 |
| 20260507104511 | 0 | 153 | 0.0 | 0.0 | 0.07 | 0.25 | 0.25 | 99 | 998.5 |
| 20260507104011 | 0 | 153 | 0.0 | 0.0 | 0.00 | 0.24 | 0.24 | 99 | 998.6 |
| 20260507103511 | 0 | 153 | 0.0 | 0.0 | 0.00 | 0.24 | 0.24 | 99 | 998.4 |
| 20260507103010 | 0 | 152 | 0.0 | 0.0 | 0.00 | 0.24 | 0.24 | 99 | 998.6 |
| 20260507102510 | 0 | 147 | 0.0 | 0.0 | 0.00 | 0.24 | 0.24 | 99 | 998.6 |
| 20260507102009 | 0 | 148 | 0.0 | 0.0 | 0.00 | 0.24 | 0.24 | 99 | 998.6 |
| 20260507101509 | 0 | 152 | 0.0 | 0.0 | 0.00 | 0.24 | 0.24 | 99 | 998.5 |
| 20260507101009 | 0 | 152 | 0.0 | 0.0 | 0.00 | 0.24 | 0.24 | 99 | 998.4 |
| 20260507100508 | 0 | 152 | 0.0 | 0.0 | 0.00 | 0.24 | 0.24 | 99 | 998.6 |
| 20260507100008 | 0 | 152 | 0.0 | 0.0 | 0.05 | 0.24 | 0.24 | 99 | 998.5 |
| 20260507095507 | 0 | 152 | 0.0 | 0.0 | 0.05 | 0.24 | 0.24 | 99 | 998.5 |
| 20260507095007 | 0 | 152 | 0.0 | 0.0 | 0.00 | 0.23 | 0.23 | 99 | 998.6 |
| 20260507094507 | 0 | 152 | 0.0 | 0.0 | 0.00 | 0.23 | 0.23 | 99 | 998.5 |
| 20260507094006 | 0 | 152 | 0.0 | 0.0 | 0.00 | 0.23 | 0.23 | 99 | 998.5 |
| 20260507093506 | 0 | 152 | 0.0 | 0.0 | 0.00 | 0.23 | 0.23 | 99 | 998.6 |
| 20260507093005 | 0 | 152 | 0.0 | 0.0 | 0.00 | 0.23 | 0.23 | 99 | 998.7 |
| 20260507092505 | 0 | 152 | 0.0 | 0.0 | 0.00 | 0.23 | 0.23 | 99 | 998.8 |
| 20260507092005 | 0 | 152 | 0.0 | 0.0 | 0.00 | 0.23 | 0.23 | 99 | 998.6 |
| 20260507091504 | 0 | 152 | 0.0 | 0.0 | 0.00 | 0.23 | 0.23 | 99 | 998.3 |
| 20260507091004 | 0 | 152 | 0.0 | 0.0 | 0.00 | 0.23 | 0.23 | 99 | 998.5 |
| 20260507090504 | 0 | 152 | 0.0 | 0.0 | 0.00 | 0.23 | 0.23 | 99 | 998.7 |
| 20260507090005 | 0 | 152 | 0.0 | 0.0 | 0.00 | 0.23 | 0.23 | 99 | 998.5 |
| 20260507085503 | 0 | 152 | 0.0 | 0.0 | 0.00 | 0.23 | 0.23 | 99 | 998.9 |
| 20260507085002 | 0 | 152 | 0.0 | 0.0 | 0.00 | 0.23 | 0.23 | 99 | 998.8 |
| 20260507084502 | 0 | 152 | 0.0 | 0.0 | 0.00 | 0.23 | 0.23 | 99 | 998.9 |
| 20260507084002 | 0 | 152 | 0.0 | 0.0 | 0.00 | 0.23 | 0.23 | 99 | 998.9 |
| 20260507083501 | 0 | 152 | 0.0 | 0.0 | 0.00 | 0.23 | 0.23 | 99 | 998.8 |
| 20260507083001 | 0 | 152 | 0.0 | 0.0 | 0.00 | 0.23 | 0.23 | 99 | 999.0 |
| 20260507082501 | 0 | 152 | 0.0 | 0.0 | 0.00 | 0.23 | 0.23 | 99 | 999.0 |
| 20260507082000 | 0 | 149 | 0.0 | 0.0 | 0.00 | 0.23 | 0.23 | 99 | 999.3 |
| 20260507081500 | 0 | 149 | 0.0 | 0.0 | 0.00 | 0.23 | 0.23 | 99 | 999.7 |
| 20260507081000 | 0 | 149 | 0.0 | 0.0 | 0.00 | 0.23 | 0.23 | 99 | 999.6 |
| 20260507080459 | 0 | 149 | 0.0 | 0.0 | 0.00 | 0.23 | 0.23 | 99 | 999.5 |
| 20260507075959 | 0 | 149 | 0.0 | 0.0 | 0.00 | 0.23 | 0.23 | 99 | 999.5 |
| 20260507075458 | 0 | 149 | 0.0 | 0.0 | 0.00 | 0.23 | 0.23 | 99 | 998.9 |
| 20260507074957 | 0 | 149 | 0.0 | 0.0 | 0.07 | 0.23 | 0.23 | 99 | 998.7 |
| 20260507074456 | 0 | 149 | 0.0 | 0.0 | 0.07 | 0.23 | 0.23 | 99 | 998.7 |
| 20260507073956 | 0 | 149 | 0.0 | 0.0 | 0.05 | 0.22 | 0.22 | 99 | 999.1 |
| 20260507073456 | 0 | 149 | 0.0 | 0.0 | 0.05 | 0.22 | 0.22 | 99 | 999.3 |
| 20260507072954 | 0 | 149 | 0.0 | 0.0 | 0.00 | 0.21 | 0.21 | 98 | 999.7 |
| 20260507072454 | 0 | 150 | 0.0 | 0.0 | 0.00 | 0.21 | 0.21 | 98 | 999.8 |
| 20260507071953 | 0 | 149 | 0.0 | 0.0 | 0.00 | 0.21 | 0.21 | 98 | 999.8 |
| 20260507071453 | 0 | 149 | 0.0 | 0.0 | 0.00 | 0.21 | 0.21 | 98 | 999.6 |
| 20260507070953 | 0 | 149 | 0.0 | 0.0 | 0.00 | 0.21 | 0.21 | 98 | 999.9 |
| 20260507070447 | 0 | 148 | 0.0 | 0.0 | 0.00 | 0.21 | 0.21 | 98 | 999.6 |
| 20260507065936 | 0 | 148 | 0.0 | 0.0 | 0.00 | 0.21 | 0.21 | 98 | 1000.0 |
| 20260507065435 | 0 | 148 | 0.0 | 0.0 | 0.00 | 0.21 | 0.21 | 98 | 999.9 |
| 20260507064935 | 0 | 148 | 0.0 | 0.0 | 0.00 | 0.21 | 0.21 | 98 | 999.5 |
| 20260507064434 | 0 | 148 | 0.0 | 0.0 | 0.00 | 0.21 | 0.21 | 98 | 1000.0 |
| 20260507063429 | 0 | 148 | 0.0 | 0.0 | 0.00 | 0.21 | 0.21 | 98 | 1000.5 |
| 20260507062929 | 0 | 148 | 0.0 | 0.0 | 0.00 | 0.21 | 0.21 | 98 | 1000.5 |
| 20260507062428 | 0 | 148 | 0.0 | 0.0 | 0.00 | 0.21 | 0.21 | 98 | 1000.6 |
| 20260507061928 | 0 | 148 | 0.0 | 0.0 | 0.00 | 0.21 | 0.21 | 98 | 1000.7 |
| 20260507061428 | 0 | 148 | 0.0 | 0.0 | 0.00 | 0.21 | 0.21 | 98 | 1000.4 |
| 20260507060927 | 0 | 148 | 0.0 | 0.0 | 0.00 | 0.21 | 0.21 | 98 | 1000.1 |
| 20260507060427 | 0 | 148 | 0.0 | 0.0 | 0.00 | 0.21 | 0.21 | 98 | 999.9 |
| 20260507055926 | 0 | 148 | 0.0 | 0.0 | 0.00 | 0.21 | 0.21 | 98 | 1000.5 |
| 20260507055426 | 0 | 148 | 0.0 | 0.0 | 0.00 | 0.21 | 0.21 | 98 | 1000.7 |
| 20260507054926 | 0 | 148 | 0.0 | 0.0 | 0.00 | 0.21 | 0.21 | 98 | 1000.6 |
| 20260507054425 | 0 | 148 | 0.0 | 0.0 | 0.00 | 0.21 | 0.21 | 98 | 1000.6 |
| 20260507053925 | 0 | 148 | 0.0 | 0.0 | 0.00 | 0.21 | 0.21 | 98 | 1000.6 |
| 20260507053424 | 0 | 148 | 0.0 | 0.0 | 0.00 | 0.21 | 0.21 | 98 | 1000.5 |
| 20260507052924 | 0 | 148 | 0.0 | 0.0 | 0.00 | 0.21 | 0.21 | 98 | 1000.3 |
| 20260507052424 | 0 | 160 | 0.0 | 0.0 | 0.07 | 0.21 | 0.21 | 98 | 1000.5 |
| 20260507051923 | 0 | 192 | 0.0 | 0.0 | 0.12 | 0.21 | 0.21 | 98 | 1000.5 |
| 20260507051423 | 0 | 174 | 0.0 | 0.0 | 0.12 | 0.20 | 0.20 | 98 | 999.6 |
| 20260507050923 | 0 | 146 | 0.0 | 0.0 | 0.19 | 0.19 | 0.19 | 98 | 999.4 |
| 20260507050423 | 0 | 191 | 0.0 | 0.0 | 0.24 | 0.18 | 0.18 | 98 | 1000.1 |
| 20260507045922 | 0 | 152 | 0.0 | 0.0 | 0.19 | 0.16 | 0.16 | 98 | 1000.0 |
| 20260507045422 | 0 | 155 | 0.0 | 0.0 | 0.12 | 0.14 | 0.14 | 97 | 1000.1 |
| 20260507044922 | 0 | 155 | 0.0 | 0.0 | 0.16 | 0.13 | 0.13 | 97 | 1000.9 |
| 20260507044421 | 0 | 155 | 0.0 | 0.0 | 0.12 | 0.12 | 0.12 | 97 | 1000.5 |
| 20260507043921 | 0 | 134 | 0.0 | 0.0 | 0.12 | 0.11 | 0.11 | 97 | 1000.7 |
| 20260507043421 | 0 | 132 | 0.0 | 0.0 | 0.12 | 0.10 | 0.10 | 97 | 1001.4 |
| 20260507042920 | 0 | 132 | 0.0 | 0.0 | 0.16 | 0.09 | 0.09 | 97 | 1001.7 |
| 20260507042420 | 0 | 132 | 0.0 | 0.0 | 0.31 | 0.08 | 0.08 | 96 | 1002.0 |
| 20260507041919 | 0 | 131 | 0.0 | 0.0 | 0.31 | 0.06 | 0.06 | 96 | 1002.3 |
| 20260507041419 | 0 | 132 | 0.0 | 0.0 | 0.19 | 0.03 | 0.03 | 96 | 1002.2 |
| 20260507040918 | 0 | 132 | 0.0 | 0.0 | 0.07 | 0.01 | 0.01 | 96 | 1002.2 |
| 20260507040418 | 0 | 132 | 0.0 | 0.0 | 0.00 | 0.00 | 0.00 | 96 | 1002.2 |
| 20260507035918 | 0 | 132 | 0.0 | 0.0 | 0.00 | 0.10 | 0.10 | 96 | 1001.9 |
| 20260507035417 | 0 | 132 | 0.0 | 0.0 | 0.00 | 0.10 | 0.10 | 96 | 1001.8 |
| 20260507034917 | 0 | 132 | 0.0 | 0.0 | 0.00 | 0.10 | 0.10 | 95 | 1001.6 |
| 20260507034417 | 0 | 132 | 0.0 | 0.0 | 0.00 | 0.10 | 0.10 | 95 | 1001.5 |
| 20260507033916 | 0 | 132 | 0.0 | 0.0 | 0.00 | 0.10 | 0.10 | 95 | 1001.3 |
| 20260507033416 | 0 | 132 | 0.0 | 0.0 | 0.00 | 0.10 | 0.10 | 95 | 1001.0 |
| 20260507032916 | 0 | 132 | 0.0 | 0.0 | 0.00 | 0.10 | 0.10 | 94 | 1000.6 |
| 20260507032415 | 0 | 132 | 0.0 | 0.0 | 0.00 | 0.10 | 0.10 | 94 | 1000.6 |
| 20260507031915 | 0 | 132 | 0.0 | 0.0 | 0.05 | 0.10 | 0.10 | 94 | 1000.8 |
| 20260507031415 | 0 | 132 | 0.0 | 0.0 | 0.05 | 0.10 | 0.10 | 93 | 1001.0 |
| 20260507030914 | 0 | 132 | 0.0 | 0.0 | 0.00 | 0.09 | 0.09 | 93 | 1001.1 |
| 20260507030414 | 0 | 132 | 0.0 | 0.0 | 0.00 | 0.09 | 0.09 | 92 | 1001.2 |
| 20260507025914 | 0 | 132 | 0.0 | 0.0 | 0.00 | 0.09 | 0.09 | 92 | 1001.3 |
| 20260507025413 | 0 | 132 | 0.0 | 0.0 | 0.00 | 0.09 | 0.09 | 91 | 1001.0 |
| 20260507024913 | 0 | 132 | 0.0 | 0.0 | 0.00 | 0.09 | 0.09 | 91 | 1000.6 |
| 20260507024413 | 0 | 132 | 0.0 | 0.0 | 0.00 | 0.09 | 0.09 | 92 | 1000.5 |
| 20260507023912 | 0 | 132 | 0.0 | 0.0 | 0.00 | 0.09 | 0.09 | 92 | 1000.6 |
| 20260507023412 | 0 | 132 | 0.0 | 0.0 | 0.00 | 0.09 | 0.09 | 91 | 1000.4 |
| 20260507022911 | 0 | 132 | 0.0 | 0.0 | 0.00 | 0.09 | 0.09 | 92 | 1000.5 |
| 20260507022411 | 0 | 132 | 0.0 | 0.0 | 0.00 | 0.09 | 0.09 | 91 | 1000.3 |
| 20260507021911 | 0 | 132 | 0.0 | 0.0 | 0.00 | 0.09 | 0.09 | 91 | 1000.4 |
| 20260507021410 | 0 | 132 | 0.0 | 0.0 | 0.00 | 0.09 | 0.09 | 91 | 1000.3 |
| 20260507020910 | 0 | 132 | 0.0 | 0.0 | 0.00 | 0.09 | 0.09 | 91 | 1000.3 |
| 20260507020410 | 0 | 132 | 0.0 | 0.0 | 0.00 | 0.09 | 0.09 | 91 | 1000.1 |
| 20260507015909 | 0 | 132 | 0.0 | 0.0 | 0.00 | 0.09 | 0.09 | 91 | 1000.0 |
| 20260507015409 | 0 | 132 | 0.0 | 0.0 | 0.00 | 0.09 | 0.09 | 90 | 1000.4 |
| 20260507014909 | 0 | 132 | 0.0 | 0.0 | 0.00 | 0.09 | 0.09 | 90 | 1000.4 |
| 20260507014408 | 0 | 132 | 0.0 | 0.0 | 0.00 | 0.09 | 0.09 | 90 | 1000.4 |